Time;durP1;ratioP1;P1;durP2;ratioP2;P2;SDS_P1;SDS_P2;PMS_P1;PMS_P2;Temp;Humidity;BMP_temperature;BMP_pressure;BME280_temperature;BME280_humidity;BME280_pressure;Samples;Min_cycle;Max_cycle;Signal;HPM_P1;HPM_P2
2021/03/05 00:00:20;;;;;;;54.90;19.40;;;;;;;4.22;97.52;99639.76;1785631;80;21702;-79
2021/03/05 00:03:25;;;;;;;51.23;19.10;;;;;;;4.22;97.44;99645.17;1785594;80;21189;-79
2021/03/05 00:06:30;;;;;;;43.50;16.90;;;;;;;4.22;97.44;99637.05;1785674;80;21320;-79
2021/03/05 00:09:36;;;;;;;53.70;20.92;;;;;;;4.25;97.49;99629.99;1784187;80;21195;-79
2021/03/05 00:12:41;;;;;;;48.08;20.20;;;;;;;4.27;97.54;99621.70;1785670;80;21881;-79
2021/03/05 00:15:49;;;;;;;59.33;21.95;;;;;;;4.28;97.50;99615.28;1772209;80;21303;-79
2021/03/05 00:18:54;;;;;;;56.63;21.85;;;;;;;4.29;97.51;99611.09;1785822;80;21802;-78
2021/03/05 00:21:58;;;;;;;60.60;21.82;;;;;;;4.29;97.53;99602.97;1785442;80;21291;-79
2021/03/05 00:25:58;;;;;;;48.13;18.90;;;;;;;4.33;97.55;99598.11;1785692;80;21134;-78
2021/03/05 00:29:03;;;;;;;57.43;23.15;;;;;;;4.36;97.56;99589.15;1785756;80;21271;-79
2021/03/05 00:32:08;;;;;;;39.73;17.37;;;;;;;4.38;97.51;99590.88;1785541;80;21184;-79
2021/03/05 00:35:16;;;;;;;56.85;22.65;;;;;;;4.40;97.55;99595.62;1768984;80;21208;-79
2021/03/05 00:38:22;;;;;;;62.73;21.55;;;;;;;4.41;97.58;99593.25;1785560;80;21228;-78
2021/03/05 00:41:27;;;;;;;54.73;20.15;;;;;;;4.40;97.64;99595.62;1785738;80;21271;-79
2021/03/05 00:44:32;;;;;;;59.03;21.35;;;;;;;4.43;97.69;99606.16;1785778;80;21141;-79
2021/03/05 00:47:38;;;;;;;48.50;21.10;;;;;;;4.48;97.78;99597.06;1785726;80;21300;-79
2021/03/05 00:50:44;;;;;;;61.65;22.98;;;;;;;4.53;97.78;99598.80;1785734;80;21303;-78
2021/03/05 00:53:50;;;;;;;59.58;23.50;;;;;;;4.50;97.57;99595.88;1785827;80;21180;-79
2021/03/05 00:56:55;;;;;;;50.33;24.18;;;;;;;4.50;97.47;99588.27;1785748;80;21314;-78
2021/03/05 01:00:01;;;;;;;60.95;25.17;;;;;;;4.52;97.47;99588.47;1785907;80;21303;-79
2021/03/05 01:03:08;;;;;;;48.68;22.17;;;;;;;4.59;97.50;99598.17;1769226;80;21857;-78
2021/03/05 01:06:13;;;;;;;61.92;23.50;;;;;;;4.60;97.36;99594.45;1785715;80;21220;-78
2021/03/05 01:09:21;;;;;;;50.45;22.40;;;;;;;4.60;97.17;99604.77;1785778;80;21767;-79
2021/03/05 01:12:26;;;;;;;52.62;24.05;;;;;;;4.59;97.03;99601.73;1785669;80;21208;-79
2021/03/05 01:15:32;;;;;;;70.37;27.20;;;;;;;4.60;97.00;99599.36;1785890;80;21153;-79
2021/03/05 01:18:39;;;;;;;48.10;21.15;;;;;;;4.60;96.87;99597.16;1785705;80;21284;-79
2021/03/05 01:21:44;;;;;;;44.00;22.60;;;;;;;4.60;96.91;99584.45;1785802;80;21276;-79
2021/03/05 01:24:50;;;;;;;50.70;22.50;;;;;;;4.65;96.92;99588.56;1785709;80;21157;-79
2021/03/05 01:27:56;;;;;;;56.18;24.57;;;;;;;4.63;96.81;99583.31;1785772;80;21216;-79
2021/03/05 01:31:02;;;;;;;50.15;23.05;;;;;;;4.61;96.75;99584.83;1785726;80;21169;-79
2021/03/05 01:34:10;;;;;;;69.07;28.40;;;;;;;4.62;96.72;99587.03;1785823;80;21284;-79
2021/03/05 01:37:16;;;;;;;60.90;27.22;;;;;;;4.65;96.71;99584.50;1785767;80;21272;-79
2021/03/05 01:40:31;;;;;;;48.17;22.77;;;;;;;4.67;96.70;99580.64;1785521;80;21137;-78
2021/03/05 01:43:41;;;;;;;56.00;25.82;;;;;;;4.74;96.72;99575.44;1785663;80;21168;-78
2021/03/05 01:46:47;;;;;;;61.90;30.00;;;;;;;4.75;96.50;99576.66;1784836;80;21279;-79
2021/03/05 01:49:53;;;;;;;60.08;30.30;;;;;;;4.78;96.34;99581.74;1785740;80;21149;-79
2021/03/05 01:53:10;;;;;;;55.92;28.32;;;;;;;4.83;96.27;99587.53;1785680;80;21165;-78
2021/03/05 01:56:14;;;;;;;65.55;32.00;;;;;;;4.90;96.10;99589.13;1785713;80;21233;-79
2021/03/05 01:59:22;;;;;;;57.80;31.12;;;;;;;4.88;95.79;99592.48;1785740;80;21185;-78
2021/03/05 02:02:27;;;;;;;63.87;30.27;;;;;;;4.90;95.58;99585.58;1785780;80;21189;-78
2021/03/05 02:05:33;;;;;;;60.33;32.17;;;;;;;4.93;95.44;99585.23;1785765;80;21164;-79
2021/03/05 02:08:41;;;;;;;60.20;31.62;;;;;;;4.97;95.29;99587.98;1785768;80;21698;-79
2021/03/05 02:11:45;;;;;;;60.63;31.75;;;;;;;5.04;95.22;99584.50;1785693;80;21180;-79
2021/03/05 02:14:50;;;;;;;69.58;30.82;;;;;;;5.14;95.07;99577.61;1785685;80;21200;-80
2021/03/05 02:18:36;;;;;;;60.38;32.15;;;;;;;5.22;94.71;99587.16;1785672;80;21330;-79
2021/03/05 02:22:30;;;;;;;71.72;33.95;;;;;;;5.26;94.14;99588.52;1785818;80;21208;-79
2021/03/05 02:26:21;;;;;;;64.60;32.83;;;;;;;5.24;93.54;99585.12;1724131;80;21272;-79
2021/03/05 02:30:11;;;;;;;54.05;26.65;;;;;;;5.24;93.09;99586.48;1784931;80;21852;-78
2021/03/05 02:33:25;;;;;;;57.93;28.87;;;;;;;5.25;92.69;99585.47;1708519;84;21384;-79
2021/03/05 02:36:34;;;;;;;59.23;30.23;;;;;;;5.22;92.26;99587.64;1673325;86;21359;-78
2021/03/05 02:40:08;;;;;;;48.38;26.82;;;;;;;5.18;92.13;99583.06;1745628;82;21240;-79
2021/03/05 02:43:19;;;;;;;61.18;27.30;;;;;;;5.16;92.02;99577.44;1748535;82;21304;-78
2021/03/05 02:46:24;;;;;;;58.28;29.65;;;;;;;5.10;91.87;99572.16;1748605;82;21284;-79
2021/03/05 02:49:29;;;;;;;57.58;30.35;;;;;;;5.06;91.75;99574.84;1722515;83;21328;-78
2021/03/05 02:52:37;;;;;;;52.83;28.30;;;;;;;5.03;91.71;99578.70;1722407;83;21300;-79
2021/03/05 02:55:43;;;;;;;61.18;30.77;;;;;;;4.99;91.69;99577.86;1707275;83;21863;-79
2021/03/05 02:58:52;;;;;;;57.08;29.92;;;;;;;5.03;91.92;99585.98;1722517;83;21279;-80
2021/03/05 03:01:57;;;;;;;64.55;31.52;;;;;;;5.04;91.86;99583.65;1722447;83;21193;-79
2021/03/05 03:05:04;;;;;;;51.40;28.35;;;;;;;5.00;91.67;99583.61;1722637;83;21209;-79
2021/03/05 03:08:11;;;;;;;50.15;26.62;;;;;;;4.99;91.65;99591.41;1706851;83;21283;-79
2021/03/05 03:11:17;;;;;;;58.30;28.10;;;;;;;4.95;91.62;99584.09;1706930;83;21268;-79
2021/03/05 03:14:22;;;;;;;51.08;24.05;;;;;;;4.90;91.59;99592.34;1722496;83;21849;-80
2021/03/05 03:17:29;;;;;;;57.40;27.40;;;;;;;4.88;91.69;99593.33;1722442;83;21319;-79
2021/03/05 03:20:36;;;;;;;48.68;26.50;;;;;;;4.81;91.72;99586.86;1722418;83;21308;-79
2021/03/05 03:23:44;;;;;;;56.08;28.75;;;;;;;4.79;91.93;99587.50;1722458;83;21857;-79
2021/03/05 03:26:48;;;;;;;66.02;31.23;;;;;;;4.75;92.13;99592.91;1722486;83;21842;-78
2021/03/05 03:29:54;;;;;;;68.50;32.70;;;;;;;4.73;92.29;99598.97;1722568;83;21838;-80
2021/03/05 03:32:59;;;;;;;60.35;33.20;;;;;;;4.73;92.41;99601.68;1722464;83;21304;-79
2021/03/05 03:36:06;;;;;;;61.23;30.97;;;;;;;4.78;92.59;99607.48;1722376;83;21288;-79
2021/03/05 03:39:16;;;;;;;62.60;32.13;;;;;;;4.82;92.57;99607.52;1725048;82;21731;-79
2021/03/05 03:42:22;;;;;;;62.93;33.58;;;;;;;4.83;92.53;99611.92;1722624;83;21311;-80
2021/03/05 03:45:30;;;;;;;66.75;35.52;;;;;;;4.83;92.44;99616.49;1722441;83;21279;-79
2021/03/05 03:48:35;;;;;;;67.08;34.63;;;;;;;4.81;92.32;99615.31;1723055;83;21189;-79
2021/03/05 03:51:44;;;;;;;63.00;31.50;;;;;;;4.82;92.31;99619.71;1763520;81;21367;-79
2021/03/05 03:54:50;;;;;;;63.20;33.20;;;;;;;4.84;92.25;99618.19;1771657;80;21228;-80
2021/03/05 03:57:59;;;;;;;58.15;31.57;;;;;;;4.85;92.22;99618.05;1771954;81;21295;-79
2021/03/05 04:01:07;;;;;;;72.15;37.00;;;;;;;4.88;92.12;99617.72;1771926;81;21292;-79
2021/03/05 04:04:13;;;;;;;67.62;35.73;;;;;;;4.89;92.05;99610.44;1772199;81;21261;-79
2021/03/05 04:07:17;;;;;;;67.60;37.70;;;;;;;4.96;92.16;99612.03;1771968;81;21862;-80
2021/03/05 04:10:25;;;;;;;64.67;34.25;;;;;;;5.02;91.93;99615.46;1771867;81;21734;-78
2021/03/05 04:13:30;;;;;;;75.32;38.02;;;;;;;5.03;91.59;99615.30;1771935;81;21169;-79
2021/03/05 04:16:36;;;;;;;75.90;39.78;;;;;;;5.01;91.26;99606.99;1771929;81;21294;-79
2021/03/05 04:19:42;;;;;;;62.38;33.33;;;;;;;5.00;91.16;99610.72;1800564;79;21144;-80
2021/03/05 04:22:50;;;;;;;70.25;37.78;;;;;;;5.03;91.14;99605.80;1802921;79;21295;-78
2021/03/05 04:25:56;;;;;;;68.72;38.92;;;;;;;5.06;91.04;99607.37;1802809;79;21350;-78
2021/03/05 04:29:01;;;;;;;60.92;34.27;;;;;;;5.09;90.92;99599.77;1802755;79;21284;-79
2021/03/05 04:32:06;;;;;;;57.30;33.25;;;;;;;5.14;90.76;99595.23;1802650;79;21332;-78
2021/03/05 04:35:14;;;;;;;68.78;37.83;;;;;;;5.15;90.39;99598.28;1802876;79;21287;-79
2021/03/05 04:38:19;;;;;;;72.55;40.23;;;;;;;5.16;90.25;99598.63;1803732;79;21874;-79
2021/03/05 04:41:24;;;;;;;76.12;40.65;;;;;;;5.20;90.18;99605.94;1803560;79;21165;-78
2021/03/05 04:44:31;;;;;;;73.28;34.98;;;;;;;5.24;89.97;99608.17;1803536;79;21145;-79
2021/03/05 04:47:37;;;;;;;70.87;34.43;;;;;;;5.26;89.62;99613.43;1803519;79;21308;-79
2021/03/05 04:50:43;;;;;;;76.62;38.60;;;;;;;5.18;89.29;99612.89;1796527;79;21944;-80
2021/03/05 04:53:49;;;;;;;76.00;37.08;;;;;;;5.09;89.30;99617.39;1803610;79;21201;-79
2021/03/05 04:56:54;;;;;;;75.08;37.70;;;;;;;5.06;89.53;99619.06;1803539;79;21743;-79
2021/03/05 04:59:59;;;;;;;61.00;33.02;;;;;;;5.05;89.63;99617.87;1803499;79;21287;-79
2021/03/05 05:03:04;;;;;;;65.67;34.45;;;;;;;5.05;89.69;99620.08;1802253;79;21316;-78
2021/03/05 05:06:11;;;;;;;69.12;36.13;;;;;;;5.04;89.65;99627.02;1803405;79;21810;-79
2021/03/05 05:09:17;;;;;;;70.95;36.58;;;;;;;4.99;89.73;99626.64;1803245;79;21359;-80
2021/03/05 05:12:22;;;;;;;77.60;38.23;;;;;;;5.01;89.91;99636.30;1770742;79;21825;-79
2021/03/05 05:15:28;;;;;;;76.02;39.70;;;;;;;5.08;90.10;99641.45;1771752;81;21678;-78
2021/03/05 05:18:34;;;;;;;69.87;35.55;;;;;;;5.15;90.04;99650.30;1770368;81;21220;-78
2021/03/05 05:21:39;;;;;;;68.07;35.73;;;;;;;5.24;89.95;99650.20;1773167;79;21307;-78
2021/03/05 05:24:45;;;;;;;67.47;35.70;;;;;;;5.31;89.64;99655.83;1773278;79;21240;-78
2021/03/05 05:27:52;;;;;;;73.70;36.83;;;;;;;5.33;89.27;99651.97;1801734;79;21818;-78
2021/03/05 05:30:58;;;;;;;75.85;39.23;;;;;;;5.32;89.05;99655.70;1784747;79;21236;-81
2021/03/05 05:34:05;;;;;;;63.30;35.60;;;;;;;5.36;88.89;99663.86;1785811;79;21759;-78
2021/03/05 05:37:21;;;;;;;68.75;38.23;;;;;;;5.42;88.67;99676.44;1765587;79;21290;-80
2021/03/05 05:40:31;;;;;;;72.95;38.65;;;;;;;5.46;88.55;99681.39;1778783;79;21302;-80
2021/03/05 05:43:51;;;;;;;73.45;39.85;;;;;;;5.51;88.33;99692.61;1773862;79;21125;-79
2021/03/05 05:46:56;;;;;;;82.37;41.40;;;;;;;5.55;88.12;99694.48;1787589;79;21328;-79
2021/03/05 05:50:05;;;;;;;84.17;44.08;;;;;;;5.59;87.81;99701.30;1778596;79;21252;-79
2021/03/05 05:53:12;;;;;;;80.38;41.85;;;;;;;5.57;87.42;99703.33;1777614;79;21299;-79
2021/03/05 05:56:18;;;;;;;71.40;39.15;;;;;;;5.56;87.26;99699.77;1781114;79;21732;-79
2021/03/05 05:59:24;;;;;;;83.30;42.65;;;;;;;5.58;87.28;99703.67;1772848;79;21260;-79
2021/03/05 06:02:30;;;;;;;78.83;39.98;;;;;;;5.61;87.09;99704.20;1776105;79;21168;-80
2021/03/05 06:05:36;;;;;;;84.70;43.63;;;;;;;5.60;86.84;99707.94;1775413;79;21267;-79
2021/03/05 06:08:42;;;;;;;91.28;44.95;;;;;;;5.58;86.58;99709.09;1782314;79;21275;-81
2021/03/05 06:11:50;;;;;;;85.45;43.23;;;;;;;5.55;86.55;99709.41;1781523;79;21302;-82
2021/03/05 06:14:54;;;;;;;87.02;41.80;;;;;;;5.55;86.55;99729.75;1780934;79;21294;-81
2021/03/05 06:18:00;;;;;;;88.52;45.38;;;;;;;5.55;86.63;99733.34;1777629;79;21286;-81
2021/03/05 06:21:06;;;;;;;112.37;49.13;;;;;;;5.56;86.66;99729.61;1785183;79;21185;-81
2021/03/05 06:24:13;;;;;;;79.55;41.33;;;;;;;5.58;86.63;99735.72;1776468;79;21251;-81
2021/03/05 06:27:22;;;;;;;93.80;46.35;;;;;;;5.60;86.44;99728.80;1780757;79;21287;-81
2021/03/05 06:30:36;;;;;;;87.88;46.18;;;;;;;5.60;86.13;99731.51;1777579;79;21256;-80
2021/03/05 06:33:42;;;;;;;86.37;40.20;;;;;;;5.57;86.08;99731.81;1777937;79;21813;-82
2021/03/05 06:36:49;;;;;;;91.42;44.38;;;;;;;5.59;86.09;99723.00;1779518;79;21275;-82
2021/03/05 06:40:12;;;;;;;92.70;45.58;;;;;;;5.62;86.06;99731.68;1776810;79;21335;-81
2021/03/05 06:43:19;;;;;;;102.40;49.93;;;;;;;5.63;85.90;99732.53;1776041;79;21810;-81
2021/03/05 06:46:44;;;;;;;79.95;41.77;;;;;;;5.63;85.83;99742.02;1769449;79;21699;-83
2021/03/05 06:49:55;;;;;;;88.92;44.40;;;;;;;5.64;85.82;99735.58;1776463;79;21217;-82
2021/03/05 06:53:01;;;;;;;99.72;48.73;;;;;;;5.67;85.81;99738.50;1773449;79;21881;-80
2021/03/05 06:56:11;;;;;;;105.43;48.95;;;;;;;5.71;85.78;99749.39;1775302;79;21789;-80
2021/03/05 06:59:20;;;;;;;103.47;48.52;;;;;;;5.79;85.79;99748.94;1776405;79;22028;-81
2021/03/05 07:02:30;;;;;;;92.65;47.38;;;;;;;5.93;85.60;99744.83;1771917;79;21187;-82
2021/03/05 07:05:58;;;;;;;102.58;48.98;;;;;;;6.06;85.18;99741.66;1775932;79;21800;-81
2021/03/05 07:09:03;;;;;;;110.40;53.92;;;;;;;6.14;84.54;99729.48;1776830;79;21617;-80
2021/03/05 07:12:16;;;;;;;98.20;47.10;;;;;;;6.23;83.98;99725.80;1777515;79;21137;-80
2021/03/05 07:15:24;;;;;;;94.85;48.73;;;;;;;6.33;83.11;99738.74;1780216;79;21272;-80
2021/03/05 07:18:30;;;;;;;94.52;47.53;;;;;;;6.27;82.48;99742.12;1777588;79;21173;-80
2021/03/05 07:21:40;;;;;;;108.05;52.55;;;;;;;6.25;82.51;99744.64;1778018;79;21866;-81
2021/03/05 07:24:48;;;;;;;92.60;47.30;;;;;;;6.21;82.51;99740.06;1777747;79;21542;-80
2021/03/05 07:27:57;;;;;;;96.60;45.80;;;;;;;6.26;82.33;99724.13;1774669;79;21191;-82
2021/03/05 07:31:03;;;;;;;90.65;47.78;;;;;;;6.29;82.12;99708.84;1774975;79;22205;-81
2021/03/05 07:34:10;;;;;;;92.85;45.67;;;;;;;6.39;81.82;99716.86;1774808;79;21211;-81
2021/03/05 07:37:17;;;;;;;103.32;52.03;;;;;;;6.35;81.31;99710.92;1757856;79;21192;-82
2021/03/05 07:40:24;;;;;;;95.38;46.90;;;;;;;6.34;81.42;99717.86;1776736;79;21412;-81
2021/03/05 07:43:30;;;;;;;106.63;56.00;;;;;;;6.44;80.88;99710.94;1776138;79;21208;-83
2021/03/05 07:46:37;;;;;;;94.15;47.43;;;;;;;6.49;80.08;99708.57;1757125;79;21290;-84
2021/03/05 07:53:07;;;;;;;107.20;50.95;;;;;;;6.55;78.58;99723.72;1747923;79;22875;-85
2021/03/05 07:56:13;;;;;;;90.50;44.03;;;;;;;6.58;78.56;99732.88;1757759;80;21896;-84
2021/03/05 07:59:19;;;;;;;91.70;46.90;;;;;;;6.64;78.47;99739.55;1758586;79;21272;-82
2021/03/05 08:02:30;;;;;;;92.92;48.28;;;;;;;6.62;78.00;99735.63;1739703;80;21877;-84
2021/03/05 08:05:44;;;;;;;80.17;42.00;;;;;;;6.67;78.32;99722.90;1757129;79;21285;-85
2021/03/05 08:08:51;;;;;;;91.72;46.25;;;;;;;6.72;77.78;99728.69;1760373;79;21291;-83
2021/03/05 08:11:59;;;;;;;79.05;40.85;;;;;;;6.69;77.38;99726.31;1760215;79;21288;-87
2021/03/05 08:15:21;;;;;;;80.00;43.40;;;;;;;6.71;77.38;99743.81;1755324;80;21292;-84
2021/03/05 08:18:27;;;;;;;88.05;45.52;;;;;;;6.74;77.38;99740.77;1756346;80;21738;-81
2021/03/05 08:22:11;;;;;;;82.78;46.53;;;;;;;6.86;77.18;99742.14;1757033;80;21374;-82
2021/03/05 08:25:42;;;;;;;92.00;44.95;;;;;;;6.95;76.99;99728.06;1757481;80;21186;-83
2021/03/05 08:28:52;;;;;;;79.80;43.00;;;;;;;7.07;76.48;99720.78;1758355;80;21888;-82
2021/03/05 08:32:00;;;;;;;87.37;44.60;;;;;;;7.17;76.16;99705.66;1760121;79;21591;-85
2021/03/05 08:35:38;;;;;;;95.10;47.62;;;;;;;7.32;75.59;99717.56;1749655;79;21200;-85
2021/03/05 08:38:44;;;;;;;75.17;41.63;;;;;;;7.44;75.30;99722.17;1679767;84;21806;-83
2021/03/05 08:41:53;;;;;;;83.75;46.98;;;;;;;7.53;74.83;99714.83;1758818;80;21951;-82
2021/03/05 08:45:22;;;;;;;88.67;46.60;;;;;;;7.63;73.80;99708.72;1756972;80;21295;-83
2021/03/05 08:48:45;;;;;;;77.67;43.15;;;;;;;7.67;73.41;99720.97;1760563;80;21181;-82
2021/03/05 08:52:01;;;;;;;72.08;41.85;;;;;;;7.77;73.35;99717.55;1742334;80;21311;-83
2021/03/05 08:55:15;;;;;;;81.60;44.10;;;;;;;7.88;72.98;99703.55;1771018;79;21208;-83
2021/03/05 08:58:24;;;;;;;85.45;44.48;;;;;;;8.00;72.43;99729.92;1779812;79;21608;-83
2021/03/05 09:01:47;;;;;;;82.67;44.48;;;;;;;8.09;72.07;99732.97;1774538;79;21986;-83
2021/03/05 09:05:05;;;;;;;86.60;48.38;;;;;;;8.14;71.73;99722.91;1762764;79;21310;-81
2021/03/05 09:08:24;;;;;;;79.47;44.75;;;;;;;8.15;71.37;99716.43;1764482;79;21319;-83
2021/03/05 09:11:33;;;;;;;;;;;;;;;8.19;71.29;99724.59;1778797;79;21196;-81
2021/03/05 09:14:39;;;;;;;75.15;40.43;;;;;;;8.29;71.03;99736.14;1776319;79;20292;-83
2021/03/05 09:17:48;;;;;;;78.78;42.15;;;;;;;8.31;71.04;99743.61;1781082;79;21216;-82
2021/03/05 09:21:03;;;;;;;71.63;38.03;;;;;;;8.34;70.78;99739.18;1772360;79;21272;-80
2021/03/05 09:24:09;;;;;;;85.42;45.17;;;;;;;8.42;70.80;99728.78;1780379;79;21339;-82
2021/03/05 09:27:38;;;;;;;85.03;45.65;;;;;;;8.45;70.16;99737.45;1780508;79;21314;-81
2021/03/05 09:30:43;;;;;;;78.20;41.90;;;;;;;8.49;69.55;99737.96;1784074;79;21276;-80
2021/03/05 09:33:53;;;;;;;81.85;43.20;;;;;;;8.51;69.65;99733.17;1778513;79;21292;-79
2021/03/05 09:37:03;;;;;;;73.87;41.83;;;;;;;8.58;69.66;99733.33;1765781;79;22436;-80
2021/03/05 09:40:11;;;;;;;83.37;43.20;;;;;;;8.64;69.17;99739.42;1778552;79;21326;-79
2021/03/05 09:43:23;;;;;;;83.07;44.20;;;;;;;8.70;69.15;99741.42;1765928;79;21319;-82
2021/03/05 09:46:49;;;;;;;76.50;42.50;;;;;;;8.80;68.63;99739.84;1777007;79;21177;-82
2021/03/05 09:50:01;;;;;;;68.55;40.70;;;;;;;8.82;67.96;99735.08;1780471;79;21275;-81
2021/03/05 09:53:28;;;;;;;81.70;44.83;;;;;;;8.82;67.86;99733.20;1776348;79;21952;-82
2021/03/05 09:56:34;;;;;;;79.75;40.10;;;;;;;8.81;67.86;99732.87;1746849;79;21224;-82
2021/03/05 09:59:59;;;;;;;72.05;40.48;;;;;;;8.88;67.72;99724.80;1741777;80;21853;-82
2021/03/05 10:03:19;;;;;;;71.40;40.95;;;;;;;8.88;67.73;99728.38;1746626;80;21498;-82
2021/03/05 10:06:25;;;;;;;64.67;35.65;;;;;;;8.86;67.88;99722.78;1756796;79;21334;-81
2021/03/05 10:09:35;;;;;;;99.50;68.87;;;;;;;8.81;67.86;99725.20;1766650;79;21588;-81
2021/03/05 10:12:41;;;;;;;82.57;50.55;;;;;;;8.72;68.24;99719.46;1718586;81;21777;-80
2021/03/05 10:15:58;;;;;;;73.00;43.78;;;;;;;8.63;68.46;99737.73;1692450;83;21881;-81
2021/03/05 10:19:27;;;;;;;74.82;42.27;;;;;;;8.56;68.76;99724.45;1705121;83;21437;-82
2021/03/05 10:22:44;;;;;;;72.55;40.05;;;;;;;8.57;68.91;99720.73;1708324;83;21196;-78
2021/03/05 10:25:58;;;;;;;72.50;41.80;;;;;;;8.64;68.74;99717.61;1710847;81;21323;-79
2021/03/05 10:29:14;;;;;;;76.85;43.70;;;;;;;8.66;68.82;99739.59;1713038;81;21977;-78
2021/03/05 10:32:33;;;;;;;75.37;41.18;;;;;;;8.68;68.78;99732.08;1712273;81;21219;-78
2021/03/05 10:35:40;;;;;;;76.45;42.53;;;;;;;8.74;68.88;99731.87;1713481;81;21304;-78
2021/03/05 10:38:49;;;;;;;79.40;44.25;;;;;;;8.77;68.81;99727.95;1711714;81;21667;-81
2021/03/05 10:45:21;;;;;;;75.32;41.05;;;;;;;8.81;68.42;99723.84;1656891;85;21825;-77
2021/03/05 10:48:26;;;;;;;76.97;42.83;;;;;;;8.77;68.50;99721.13;1665431;84;21202;-79
2021/03/05 10:51:32;;;;;;;77.97;46.10;;;;;;;8.72;68.32;99724.39;1663080;85;21173;-78
2021/03/05 10:54:37;;;;;;;77.67;41.98;;;;;;;8.65;68.58;99729.69;1672059;85;21310;-78
2021/03/05 10:57:43;;;;;;;69.25;40.38;;;;;;;8.67;68.69;99723.56;1683618;85;21236;-78
2021/03/05 11:00:48;;;;;;;68.05;37.48;;;;;;;8.70;68.85;99716.41;1639572;85;21178;-78
2021/03/05 11:03:56;;;;;;;77.50;43.25;;;;;;;8.69;68.93;99724.74;1685568;83;21487;-78
2021/03/05 11:07:04;;;;;;;80.10;42.33;;;;;;;8.63;68.88;99731.76;1668170;85;21205;-77
2021/03/05 11:10:12;;;;;;;87.88;48.65;;;;;;;8.55;68.79;99720.89;1682609;83;21755;-78
2021/03/05 11:13:17;;;;;;;81.53;42.65;;;;;;;8.49;69.10;99720.24;1664856;84;21221;-78
2021/03/05 11:16:24;;;;;;;72.30;42.75;;;;;;;8.50;69.10;99712.91;1682432;83;22393;-78
2021/03/05 11:19:32;;;;;;;78.00;44.40;;;;;;;8.47;69.32;99715.98;1670949;84;21625;-79
2021/03/05 11:22:38;;;;;;;78.83;44.03;;;;;;;8.52;69.33;99710.87;1685411;83;21245;-81
2021/03/05 11:25:45;;;;;;;74.35;42.85;;;;;;;8.61;68.96;99709.78;1643234;85;21171;-80
2021/03/05 11:28:52;;;;;;;74.27;42.60;;;;;;;8.62;68.82;99707.41;1668796;84;21611;-77
2021/03/05 11:31:57;;;;;;;86.82;46.10;;;;;;;8.62;68.71;99716.44;1683168;83;21218;-80
2021/03/05 11:35:04;;;;;;;78.47;45.55;;;;;;;8.58;68.80;99721.91;1644764;85;21703;-80
2021/03/05 11:38:10;;;;;;;78.95;46.18;;;;;;;8.60;68.76;99715.75;1683050;83;21220;-77
2021/03/05 11:41:17;;;;;;;79.67;45.80;;;;;;;8.60;68.50;99718.48;1669235;85;21910;-77
2021/03/05 11:44:24;;;;;;;69.95;41.33;;;;;;;8.61;68.62;99705.69;1696673;83;21303;-81
2021/03/05 11:47:30;;;;;;;82.67;45.98;;;;;;;8.56;69.11;99713.55;1672914;84;21816;-78
2021/03/05 11:50:36;;;;;;;74.25;41.58;;;;;;;8.48;69.18;99706.28;1706485;83;21162;-77
2021/03/05 11:53:41;;;;;;;85.35;46.25;;;;;;;8.49;69.14;99711.22;1697736;84;21212;-78
2021/03/05 11:56:46;;;;;;;73.52;39.42;;;;;;;8.47;68.91;99715.98;1708410;83;21177;-81
2021/03/05 11:59:54;;;;;;;78.50;46.48;;;;;;;8.47;68.87;99718.22;1699819;84;21794;-81
2021/03/05 12:02:59;;;;;;;78.00;46.28;;;;;;;8.44;68.86;99711.23;1691470;84;21840;-77
2021/03/05 12:06:05;;;;;;;78.95;44.40;;;;;;;8.48;68.96;99709.53;1708921;83;21332;-77
2021/03/05 12:09:11;;;;;;;77.37;43.73;;;;;;;8.47;68.92;99714.62;1673895;84;21239;-77
2021/03/05 12:12:18;;;;;;;80.47;44.95;;;;;;;8.41;69.04;99715.66;1677120;85;21722;-81
2021/03/05 12:15:23;;;;;;;75.55;39.48;;;;;;;8.31;69.21;99719.09;1712676;83;21307;-81
2021/03/05 12:18:29;;;;;;;83.03;47.67;;;;;;;8.24;69.51;99715.38;1665242;85;21345;-81
2021/03/05 12:21:36;;;;;;;98.10;49.45;;;;;;;8.24;69.67;99719.47;1707848;83;21728;-77
2021/03/05 12:24:41;;;;;;;87.82;48.35;;;;;;;8.29;69.42;99727.11;1709066;83;21277;-80
2021/03/05 12:27:47;;;;;;;84.67;45.38;;;;;;;8.33;69.11;99723.87;1711834;82;21738;-77
2021/03/05 12:30:53;;;;;;;85.77;42.83;;;;;;;8.30;69.27;99728.81;1670693;84;21218;-79
2021/03/05 12:34:01;;;;;;;82.72;47.13;;;;;;;8.22;69.58;99731.03;1712361;83;21551;-77
2021/03/05 12:37:05;;;;;;;92.95;49.98;;;;;;;8.19;69.46;99736.86;1671878;84;21377;-80
2021/03/05 12:40:13;;;;;;;82.85;47.30;;;;;;;8.20;69.54;99732.58;1706768;82;21268;-78
2021/03/05 12:43:18;;;;;;;75.55;43.80;;;;;;;8.26;69.36;99729.66;1671616;84;21173;-81
2021/03/05 12:46:25;;;;;;;89.72;48.75;;;;;;;8.27;69.23;99727.27;1709358;83;21197;-77
2021/03/05 12:49:30;;;;;;;76.67;45.67;;;;;;;8.24;69.29;99739.05;1699893;83;21295;-81
2021/03/05 12:52:30;;;;;;;90.60;48.78;;;;;;;8.19;69.30;99737.70;1698508;83;21891;-78
2021/03/05 12:55:35;;;;;;;101.75;53.68;;;;;;;8.18;69.42;99731.05;1737441;81;21766;-81
2021/03/05 12:58:41;;;;;;;92.37;49.53;;;;;;;8.14;69.27;99742.83;1737076;81;21283;-77
2021/03/05 13:01:47;;;;;;;101.50;51.28;;;;;;;7.98;69.43;99742.00;1732816;81;21631;-77
2021/03/05 13:04:53;;;;;;;87.82;47.27;;;;;;;7.77;70.18;99743.41;1704856;83;21162;-79
2021/03/05 13:07:58;;;;;;;103.60;52.88;;;;;;;7.53;71.05;99758.37;1714039;83;21280;-79
2021/03/05 13:11:05;;;;;;;102.25;54.00;;;;;;;7.27;71.93;99764.83;1698004;83;21264;-80
2021/03/05 13:14:11;;;;;;;104.12;57.50;;;;;;;7.04;72.75;99770.57;1715452;83;21288;-81
2021/03/05 13:17:16;;;;;;;101.60;54.15;;;;;;;6.87;72.93;99781.42;1733468;81;21881;-81
2021/03/05 13:20:22;;;;;;;105.52;55.48;;;;;;;6.74;73.15;99776.11;1733042;81;21315;-77
2021/03/05 13:23:29;;;;;;;122.90;63.78;;;;;;;6.58;73.77;99779.59;1732462;81;21339;-81
2021/03/05 13:26:35;;;;;;;112.60;57.85;;;;;;;6.45;74.21;99786.86;1734474;82;21330;-81
2021/03/05 13:29:41;;;;;;;117.08;55.98;;;;;;;6.44;74.63;99789.72;1739568;81;21274;-78
2021/03/05 13:32:45;;;;;;;111.30;59.75;;;;;;;6.42;74.62;99790.41;1735089;82;21381;-81
2021/03/05 13:35:51;;;;;;;116.57;58.08;;;;;;;6.36;74.75;99793.27;1726659;82;21790;-79
2021/03/05 13:38:57;;;;;;;92.12;49.50;;;;;;;6.31;74.99;99801.05;1738736;82;21169;-79
2021/03/05 13:42:02;;;;;;;95.83;50.25;;;;;;;6.28;74.76;99799.49;1729337;82;21848;-81
2021/03/05 13:45:07;;;;;;;103.15;54.10;;;;;;;6.24;74.45;99789.96;1709501;83;21833;-79
2021/03/05 13:48:14;;;;;;;112.85;56.23;;;;;;;6.16;74.60;99789.91;1707989;82;21245;-78
2021/03/05 13:51:22;;;;;;;89.42;48.65;;;;;;;6.11;74.69;99794.97;1708336;83;21293;-81
2021/03/05 13:54:27;;;;;;;98.07;50.50;;;;;;;6.02;74.58;99798.16;1713044;82;21288;-78
2021/03/05 13:57:33;;;;;;;102.92;51.92;;;;;;;5.90;74.88;99788.02;1706916;82;21873;-80
2021/03/05 14:00:39;;;;;;;102.75;52.67;;;;;;;5.86;75.36;99787.14;1707749;82;21312;-79
2021/03/05 14:03:47;;;;;;;107.12;54.42;;;;;;;5.84;75.27;99801.39;1721702;82;21256;-78
2021/03/05 14:06:54;;;;;;;115.00;54.23;;;;;;;5.79;75.10;99803.73;1707589;83;21802;-78
2021/03/05 14:10:00;;;;;;;94.97;49.63;;;;;;;5.78;74.89;99806.07;1707364;83;21332;-78
2021/03/05 14:13:06;;;;;;;100.07;45.85;;;;;;;5.76;74.74;99795.38;1697829;83;21831;-81
2021/03/05 14:16:13;;;;;;;91.17;45.33;;;;;;;5.74;74.33;99794.70;1712912;82;21319;-78
2021/03/05 14:19:18;;;;;;;81.15;43.20;;;;;;;5.72;74.41;99799.92;1706733;82;21150;-78
2021/03/05 14:22:23;;;;;;;84.58;44.15;;;;;;;5.69;74.63;99786.16;1701856;82;21286;-78
2021/03/05 14:25:28;;;;;;;96.25;46.15;;;;;;;5.66;74.55;99793.27;1726944;81;21318;-78
2021/03/05 14:28:34;;;;;;;83.45;42.58;;;;;;;5.59;74.43;99798.45;1737868;81;21295;-78
2021/03/05 14:31:41;;;;;;;100.80;43.08;;;;;;;5.56;74.39;99791.16;1733290;81;21280;-78
2021/03/05 14:34:47;;;;;;;77.12;42.05;;;;;;;5.53;74.67;99798.24;1739023;81;21298;-79
2021/03/05 14:37:52;;;;;;;92.65;45.88;;;;;;;5.50;75.04;99795.33;1727500;81;21186;-81
2021/03/05 14:40:58;;;;;;;91.10;45.65;;;;;;;5.52;74.95;99797.91;1741075;81;22109;-78
2021/03/05 14:44:03;;;;;;;96.82;47.65;;;;;;;5.54;74.81;99800.80;1737399;81;21857;-79